Time;durP1;ratioP1;P1;durP2;ratioP2;P2;SDS_P1;SDS_P2;PMS_P1;PMS_P2;Temp;Humidity;BMP_temperature;BMP_pressure;BME280_temperature;BME280_humidity;BME280_pressure;Samples;Min_cycle;Max_cycle;Signal;HPM_P1;HPM_P2
2023/04/04 00:00:44;;;;;;;;;;;;;;;4.35;61.33;100955.69;5069529;28;19980;-58
2023/04/04 00:03:10;;;;;;;;;;;;;;;4.38;61.25;100954.84;5058933;28;20295;-59
2023/04/04 00:05:35;;;;;;;;;;;;;;;4.34;61.32;100947.78;5063049;28;19949;-58
2023/04/04 00:08:01;;;;;;;;;;;;;;;4.28;61.94;100953.91;5071308;28;19953;-58
2023/04/04 00:10:27;;;;;;;;;;;;;;;4.28;60.41;100945.09;5062738;28;20318;-59
2023/04/04 00:12:52;;;;;;;;;;;;;;;4.33;61.30;100944.28;5069685;28;19916;-58
2023/04/04 00:15:17;;;;;;;;;;;;;;;4.27;60.92;100941.59;5068196;28;19942;-59
2023/04/04 00:17:43;;;;;;;;;;;;;;;4.25;61.27;100945.94;5070451;28;20018;-58
2023/04/04 00:20:08;;;;;;;;;;;;;;;4.27;61.99;100943.34;5070283;28;19930;-58
2023/04/04 00:22:33;;;;;;;;;;;;;;;4.26;61.98;100937.19;5070169;28;19945;-58
2023/04/04 00:24:59;;;;;;;;;;;;;;;4.22;61.02;100940.66;5059186;28;19958;-58
2023/04/04 00:27:24;;;;;;;;;;;;;;;4.21;61.96;100941.56;5063645;28;19941;-58
2023/04/04 00:29:49;;;;;;;;;;;;;;;4.17;61.19;100934.47;5070763;28;20052;-58
2023/04/04 00:32:15;;;;;;;;;;;;;;;4.18;60.74;100936.25;5071023;28;19938;-58
2023/04/04 00:34:40;;;;;;;;;;;;;;;4.13;61.15;100932.72;5056406;28;19948;-58
2023/04/04 00:37:06;;;;;;;;;;;;;;;4.11;60.30;100931.81;5050639;28;20295;-58
2023/04/04 00:39:32;;;;;;;;;;;;;;;4.07;61.18;100938.81;5052318;28;20060;-59
2023/04/04 00:41:57;;;;;;;;;;;;;;;4.04;61.10;100937.88;5064277;28;20264;-58
2023/04/04 00:44:22;;;;;;;;;;;;;;;4.02;60.49;100932.63;5068010;28;20293;-58
2023/04/04 00:46:48;;;;;;;;;;;;;;;4.00;62.21;100921.19;5052046;28;19952;-59
2023/04/04 00:49:13;;;;;;;;;;;;;;;4.03;62.36;100930.88;5049754;28;19951;-59
2023/04/04 00:51:38;;;;;;;;;;;;;;;4.01;62.71;100922.06;5055626;28;19920;-59
2023/04/04 00:54:03;;;;;;;;;;;;;;;3.98;62.98;100922.94;5050203;28;19928;-58
2023/04/04 00:56:29;;;;;;;;;;;;;;;4.00;63.32;100933.47;5051778;28;20353;-58
2023/04/04 00:58:55;;;;;;;;;;;;;;;3.96;63.11;100929.06;5054353;28;20394;-58
2023/04/04 01:01:21;;;;;;;;;;;;;;;3.95;62.66;100928.16;5069955;28;19958;-60
2023/04/04 01:03:46;;;;;;;;;;;;;;;3.93;62.43;100934.28;5058139;28;20367;-60
2023/04/04 01:06:12;;;;;;;;;;;;;;;3.93;63.47;100924.66;5067176;28;20020;-60
2023/04/04 01:08:38;;;;;;;;;;;;;;;3.88;63.77;100920.22;5067025;28;19916;-60
2023/04/04 01:11:05;;;;;;;;;;;;;;;3.77;64.05;100922.75;5049453;28;19949;-60
2023/04/04 01:13:30;;;;;;;;;;;;;;;3.73;64.58;100917.44;5049131;28;19919;-60
2023/04/04 01:15:56;;;;;;;;;;;;;;;3.72;64.42;100919.19;5053160;28;19933;-60
2023/04/04 01:18:22;;;;;;;;;;;;;;;3.73;64.96;100920.97;5069804;28;20376;-60
2023/04/04 01:20:53;;;;;;;;;;;;;;;3.65;64.03;100921.75;5066724;28;20259;-60
2023/04/04 01:23:20;;;;;;;;;;;;;;;3.64;64.56;100914.75;5049807;28;19921;-59
2023/04/04 01:25:47;;;;;;;;;;;;;;;3.62;64.86;100919.09;5051404;28;20388;-59
2023/04/04 01:28:12;;;;;;;;;;;;;;;3.63;65.46;100919.13;5063051;28;20390;-59
2023/04/04 01:30:37;;;;;;;;;;;;;;;3.57;63.60;100924.31;5070085;28;20047;-59
2023/04/04 01:33:14;;;;;;;;;;;;;;;3.62;64.58;100916.47;5064820;28;19988;-59
2023/04/04 01:35:49;;;;;;;;;;;;;;;3.60;64.89;100915.56;5049869;28;19931;-60
2023/04/04 01:38:15;;;;;;;;;;;;;;;3.58;64.37;100914.66;5050262;28;19933;-60
2023/04/04 01:40:45;;;;;;;;;;;;;;;3.53;64.68;100905.84;5033722;28;20059;-60
2023/04/04 01:43:10;;;;;;;;;;;;;;;3.53;65.63;100921.63;5067389;28;20063;-60
2023/04/04 01:45:36;;;;;;;;;;;;;;;3.54;65.91;100918.16;5059893;28;20381;-60
2023/04/04 01:48:01;;;;;;;;;;;;;;;3.51;66.30;100915.50;5058035;28;19969;-60
2023/04/04 01:50:26;;;;;;;;;;;;;;;3.50;67.63;100911.09;5068225;28;19943;-60
2023/04/04 01:52:52;;;;;;;;;;;;;;;3.43;68.00;100917.13;5069536;28;19961;-60
2023/04/04 01:55:17;;;;;;;;;;;;;;;3.39;68.28;100915.34;5069741;28;19919;-60
2023/04/04 01:57:42;;;;;;;;;;;;;;;3.37;69.33;100909.19;5069889;28;20650;-60
2023/04/04 02:00:08;;;;;;;;;;;;;;;3.34;69.42;100911.81;5066257;28;20146;-60
2023/04/04 02:02:33;;;;;;;;;;;;;;;3.29;69.79;100918.75;5049877;28;19995;-60
2023/04/04 02:04:58;;;;;;;;;;;;;;;3.20;68.80;100908.13;5060858;28;19958;-60
2023/04/04 02:07:24;;;;;;;;;;;;;;;3.24;69.58;100913.44;5055718;28;20423;-60
2023/04/04 02:09:49;;;;;;;;;;;;;;;3.16;68.37;100909.88;5052807;28;20046;-60
2023/04/04 02:12:15;;;;;;;;;;;;;;;3.17;69.73;100908.97;5052816;28;19917;-60
2023/04/04 02:14:40;;;;;;;;;;;;;;;3.15;68.90;100912.44;5054967;28;19940;-60
2023/04/04 02:17:05;;;;;;;;;;;;;;;3.13;68.72;100909.81;5052667;28;20455;-60
2023/04/04 02:19:31;;;;;;;;;;;;;;;3.13;67.75;100914.19;5066114;28;20104;-60
2023/04/04 02:21:56;;;;;;;;;;;;;;;3.16;67.63;100909.88;5070774;28;19959;-60
2023/04/04 02:24:21;;;;;;;;;;;;;;;3.14;67.46;100911.59;5073601;28;19943;-60
2023/04/04 02:26:47;;;;;;;;;;;;;;;3.22;67.85;100902.03;5069664;28;20308;-60
2023/04/04 02:29:12;;;;;;;;;;;;;;;3.16;67.01;100909.88;5073100;28;19927;-60
2023/04/04 02:31:37;;;;;;;;;;;;;;;3.18;66.23;100910.72;5073078;28;19947;-60
2023/04/04 02:34:03;;;;;;;;;;;;;;;3.18;66.82;100908.09;5069432;28;19917;-60
2023/04/04 02:36:28;;;;;;;;;;;;;;;3.08;66.56;100894.88;5060728;28;19935;-60
2023/04/04 02:38:53;;;;;;;;;;;;;;;3.18;67.08;100909.88;5053004;28;20015;-60
2023/04/04 02:41:18;;;;;;;;;;;;;;;3.20;67.59;100908.13;5055480;28;20599;-60
2023/04/04 02:43:44;;;;;;;;;;;;;;;3.21;67.74;100912.53;5061911;28;19954;-60
2023/04/04 02:46:09;;;;;;;;;;;;;;;3.16;67.27;100907.22;5071768;28;19970;-60
2023/04/04 02:48:35;;;;;;;;;;;;;;;3.17;67.35;100905.47;5055398;28;19942;-60
2023/04/04 02:51:00;;;;;;;;;;;;;;;3.12;67.76;100907.16;5052593;28;20262;-60
2023/04/04 02:53:26;;;;;;;;;;;;;;;3.10;68.03;100903.66;5059568;28;19964;-60
2023/04/04 02:55:52;;;;;;;;;;;;;;;3.07;67.85;100898.34;5072498;28;19920;-60
2023/04/04 02:58:17;;;;;;;;;;;;;;;3.09;68.79;100901.88;5072380;28;19928;-60
2023/04/04 03:00:43;;;;;;;;;;;;;;;2.99;69.21;100905.25;5072532;28;20311;-60
2023/04/04 03:03:08;;;;;;;;;;;;;;;3.02;69.08;100905.28;5060733;28;19951;-60
2023/04/04 03:05:33;;;;;;;;;;;;;;;3.02;68.90;100900.03;5064967;28;19950;-60
2023/04/04 03:07:58;;;;;;;;;;;;;;;2.98;68.83;100899.13;5067439;28;19939;-60
2023/04/04 03:10:25;;;;;;;;;;;;;;;2.92;69.40;100901.66;5059194;28;19945;-60
2023/04/04 03:12:50;;;;;;;;;;;;;;;2.93;70.03;100902.56;5059007;28;19943;-59
2023/04/04 03:15:16;;;;;;;;;;;;;;;2.90;68.94;100899.91;5051833;28;19990;-60
2023/04/04 03:17:41;;;;;;;;;;;;;;;2.89;69.03;100895.50;5058565;28;19927;-60
2023/04/04 03:20:07;;;;;;;;;;;;;;;2.86;69.78;100900.72;5072471;28;19960;-60
2023/04/04 03:22:33;;;;;;;;;;;;;;;2.85;69.81;100901.59;5065977;28;20029;-60
2023/04/04 03:24:58;;;;;;;;;;;;;;;2.87;69.47;100899.88;5052065;28;20044;-60
2023/04/04 03:27:23;;;;;;;;;;;;;;;2.79;69.55;100902.38;5054016;28;19935;-60
2023/04/04 03:29:49;;;;;;;;;;;;;;;2.80;70.79;100903.28;5071998;28;19966;-60
2023/04/04 03:32:14;;;;;;;;;;;;;;;2.82;69.70;100901.56;5072076;28;20313;-60
2023/04/04 03:34:39;;;;;;;;;;;;;;;2.80;70.55;100898.88;5061376;28;19917;-60
2023/04/04 03:37:04;;;;;;;;;;;;;;;2.73;69.64;100903.19;5065179;28;19943;-60
2023/04/04 03:39:30;;;;;;;;;;;;;;;2.78;70.04;100898.00;5069637;28;20479;-60
2023/04/04 03:41:56;;;;;;;;;;;;;;;2.81;69.54;100894.53;5070511;28;19939;-59
2023/04/04 03:44:21;;;;;;;;;;;;;;;2.77;68.71;100898.00;5062388;28;19921;-59
2023/04/04 03:46:46;;;;;;;;;;;;;;;2.79;68.19;100901.50;5055731;28;19943;-60
2023/04/04 03:49:12;;;;;;;;;;;;;;;2.79;68.90;100890.97;5065626;28;19944;-59
2023/04/04 03:51:37;;;;;;;;;;;;;;;2.75;69.23;100900.59;5051365;28;20300;-59
2023/04/04 03:54:02;;;;;;;;;;;;;;;2.73;69.93;100903.19;5051211;28;19943;-59
2023/04/04 03:56:29;;;;;;;;;;;;;;;2.68;68.09;100893.50;5066515;28;20672;-59
2023/04/04 03:58:55;;;;;;;;;;;;;;;2.74;68.86;100893.56;5070680;28;19917;-60
2023/04/04 04:01:20;;;;;;;;;;;;;;;2.67;69.97;100897.84;5067454;28;19936;-59
2023/04/04 04:03:46;;;;;;;;;;;;;;;2.66;69.98;100896.09;5070971;28;19956;-60
2023/04/04 04:06:11;;;;;;;;;;;;;;;2.68;68.78;100896.97;5070108;28;19946;-59
2023/04/04 04:08:37;;;;;;;;;;;;;;;2.69;69.19;100908.38;5053303;28;19928;-60
2023/04/04 04:11:02;;;;;;;;;;;;;;;2.68;69.66;100904.88;5066925;28;19917;-60
2023/04/04 04:13:28;;;;;;;;;;;;;;;2.68;69.70;100896.13;5061898;28;19944;-60
2023/04/04 04:15:53;;;;;;;;;;;;;;;2.66;70.34;100906.63;5051664;28;20366;-60
2023/04/04 04:18:19;;;;;;;;;;;;;;;2.59;70.30;100907.38;5051742;28;19923;-60
2023/04/04 04:20:44;;;;;;;;;;;;;;;2.57;71.23;100905.63;5068617;28;20271;-60
2023/04/04 04:23:10;;;;;;;;;;;;;;;2.55;72.00;100902.94;5070900;28;20394;-60
2023/04/04 04:25:35;;;;;;;;;;;;;;;2.54;71.99;100901.19;5067955;28;19924;-60
2023/04/04 04:28:00;;;;;;;;;;;;;;;2.50;71.56;100903.75;5070784;28;19934;-60
2023/04/04 04:30:25;;;;;;;;;;;;;;;2.48;72.41;100903.75;5068540;28;19941;-60
2023/04/04 04:32:51;;;;;;;;;;;;;;;2.44;72.44;100899.28;5053130;28;19916;-59
2023/04/04 04:35:16;;;;;;;;;;;;;;;2.41;73.11;100909.75;5050824;28;20437;-60
2023/04/04 04:37:41;;;;;;;;;;;;;;;2.37;71.98;100912.31;5055135;28;19959;-59
2023/04/04 04:40:07;;;;;;;;;;;;;;;2.35;71.68;100920.19;5070905;28;19942;-60
2023/04/04 04:42:32;;;;;;;;;;;;;;;2.34;73.36;100915.78;5068668;28;19934;-59
2023/04/04 04:44:58;;;;;;;;;;;;;;;2.41;73.16;100920.25;5050949;28;20438;-60
2023/04/04 04:47:23;;;;;;;;;;;;;;;2.34;72.70;100918.41;5050457;28;20025;-60
2023/04/04 04:49:48;;;;;;;;;;;;;;;2.23;72.52;100920.00;5053033;28;20278;-60
2023/04/04 04:52:14;;;;;;;;;;;;;;;2.25;72.78;100923.53;5032375;28;20303;-59
2023/04/04 04:54:39;;;;;;;;;;;;;;;2.26;72.97;100933.16;5052501;28;20003;-59
2023/04/04 04:57:05;;;;;;;;;;;;;;;2.29;73.91;100921.84;5050384;28;19917;-60
2023/04/04 04:59:30;;;;;;;;;;;;;;;2.27;73.56;100921.78;5058127;28;19957;-59
2023/04/04 05:01:56;;;;;;;;;;;;;;;2.27;74.26;100916.53;5066643;28;19916;-59
2023/04/04 05:04:21;;;;;;;;;;;;;;;2.24;72.99;100927.00;5068959;28;19996;-60
2023/04/04 05:06:46;;;;;;;;;;;;;;;2.26;73.74;100930.53;5064167;28;19938;-59
2023/04/04 05:09:11;;;;;;;;;;;;;;;2.31;73.72;100938.47;5054306;28;19995;-60
2023/04/04 05:11:37;;;;;;;;;;;;;;;2.29;73.99;100935.81;5070136;28;19928;-60
2023/04/04 05:14:02;;;;;;;;;;;;;;;2.30;73.83;100937.59;5066504;28;19978;-60
2023/04/04 05:16:27;;;;;;;;;;;;;;;2.29;73.65;100933.19;5053532;28;19976;-60
2023/04/04 05:18:53;;;;;;;;;;;;;;;2.34;73.78;100934.16;5054771;28;20039;-59
2023/04/04 05:21:18;;;;;;;;;;;;;;;2.40;73.32;100934.25;5044597;28;19936;-59
2023/04/04 05:23:44;;;;;;;;;;;;;;;2.43;73.60;100936.91;5049851;28;19947;-60
2023/04/04 05:26:09;;;;;;;;;;;;;;;2.40;74.07;100936.00;5050036;28;20376;-59
2023/04/04 05:28:34;;;;;;;;;;;;;;;2.45;73.38;100943.09;5049742;28;20345;-60
2023/04/04 05:31:00;;;;;;;;;;;;;;;2.51;73.33;100942.25;5058507;28;19932;-60
2023/04/04 05:33:25;;;;;;;;;;;;;;;2.58;72.18;100945.03;5050043;28;19937;-60
2023/04/04 05:35:50;;;;;;;;;;;;;;;2.66;72.87;100946.00;5053578;28;19985;-60
2023/04/04 05:38:16;;;;;;;;;;;;;;;3.13;72.77;100951.84;5069141;28;20042;-60
2023/04/04 05:40:41;;;;;;;;;;;;;;;3.59;68.74;100948.00;5069696;28;20433;-60
2023/04/04 05:43:08;;;;;;;;;;;;;;;3.90;66.18;100950.91;5055488;28;19939;-60
2023/04/04 05:45:33;;;;;;;;;;;;;;;3.76;64.35;100949.03;5049714;28;19924;-60
2023/04/04 05:47:58;;;;;;;;;;;;;;;3.84;64.29;100952.63;5052100;28;19931;-60
2023/04/04 05:50:24;;;;;;;;;;;;;;;3.82;63.51;100947.34;5067636;28;19972;-60
2023/04/04 05:52:52;;;;;;;;;;;;;;;3.80;64.16;100945.59;5069511;28;19958;-60
2023/04/04 05:55:17;;;;;;;;;;;;;;;3.75;64.56;100952.53;5054215;28;20328;-60
2023/04/04 05:57:46;;;;;;;;;;;;;;;4.00;64.02;100949.28;5059618;28;19924;-60
2023/04/04 06:00:12;;;;;;;;;;;;;;;4.31;62.76;100946.00;5063600;28;19978;-60
2023/04/04 06:02:37;;;;;;;;;;;;;;;4.74;61.68;100948.06;5049799;28;20033;-60
2023/04/04 06:05:03;;;;;;;;;;;;;;;5.29;59.57;100949.16;5057874;28;19999;-60
2023/04/04 06:07:28;;;;;;;;;;;;;;;5.25;56.62;100948.28;5069940;28;19966;-60
2023/04/04 06:09:53;;;;;;;;;;;;;;;5.53;58.28;100945.72;5065657;28;20373;-60
2023/04/04 06:12:18;;;;;;;;;;;;;;;6.21;56.36;100937.03;5068832;28;19953;-60
2023/04/04 06:14:44;;;;;;;;;;;;;;;7.63;51.70;100937.44;5066045;28;19976;-60
2023/04/04 06:17:09;;;;;;;;;;;;;;;9.15;48.63;100936.06;5064036;28;19917;-60
2023/04/04 06:19:34;;;;;;;;;;;;;;;10.74;44.54;100930.97;5067839;28;20368;-60
2023/04/04 06:22:00;;;;;;;;;;;;;;;11.84;42.45;100924.22;5065215;28;19995;-61
2023/04/04 06:24:26;;;;;;;;;;;;;;;12.47;39.38;100933.28;5067827;28;19951;-60
2023/04/04 06:26:54;;;;;;;;;;;;;;;11.70;39.53;100934.28;5068185;28;19928;-60
2023/04/04 06:29:19;;;;;;;;;;;;;;;11.72;40.61;100925.38;5068457;28;19916;-61
2023/04/04 06:31:45;;;;;;;;;;;;;;;12.52;39.76;100938.53;5058004;28;19938;-61
2023/04/04 06:34:10;;;;;;;;;;;;;;;13.74;37.50;100932.38;5068399;28;19923;-61
2023/04/04 06:36:35;;;;;;;;;;;;;;;14.33;35.76;100923.34;5068802;28;20037;-60
2023/04/04 06:39:01;;;;;;;;;;;;;;;14.69;36.22;100926.56;5067020;28;19917;-61
2023/04/04 06:41:26;;;;;;;;;;;;;;;15.55;34.01;100927.81;5059925;28;20332;-61
2023/04/04 06:43:52;;;;;;;;;;;;;;;15.82;33.30;100926.75;5069794;28;20288;-61
2023/04/04 06:46:17;;;;;;;;;;;;;;;15.62;34.06;100933.81;5078209;28;19982;-61
2023/04/04 06:48:43;;;;;;;;;;;;;;;15.97;33.24;100930.63;5067140;28;19945;-61
2023/04/04 06:51:10;;;;;;;;;;;;;;;16.00;33.01;100934.97;5052720;28;19944;-61
2023/04/04 06:53:35;;;;;;;;;;;;;;;16.28;32.66;100930.25;5052591;28;19959;-60
2023/04/04 06:56:01;;;;;;;;;;;;;;;16.03;32.67;100924.16;5052728;28;19924;-61
2023/04/04 06:58:26;;;;;;;;;;;;;;;15.77;32.66;100923.38;5060340;28;19962;-61
2023/04/04 07:00:51;;;;;;;;;;;;;;;15.88;33.27;100924.75;5072151;28;19956;-61
2023/04/04 07:03:16;;;;;;;;;;;;;;;16.62;33.86;100930.63;5071831;28;19924;-61
2023/04/04 07:05:42;;;;;;;;;;;;;;;17.11;32.12;100922.16;5057736;28;19956;-58
2023/04/04 07:08:08;;;;;;;;;;;;;;;17.17;32.00;100913.81;5063905;28;19939;-58
2023/04/04 07:10:33;;;;;;;;;;;;;;;16.98;32.19;100926.34;5069719;28;20574;-59
2023/04/04 07:12:58;;;;;;;;;;;;;;;17.12;32.68;100921.22;5071005;28;20390;-60
2023/04/04 07:15:24;;;;;;;;;;;;;;;16.65;32.70;100887.50;5068285;28;19947;-60
2023/04/04 07:17:49;;;;;;;;;;;;;;;16.46;32.97;100918.75;5070846;28;20452;-60
2023/04/04 07:20:15;;;;;;;;;;;;;;;16.35;32.96;100916.53;5064756;28;19940;-60
2023/04/04 07:22:41;;;;;;;;;;;;;;;16.09;33.11;100921.22;5056705;28;20045;-60
2023/04/04 07:25:07;;;;;;;;;;;;;;;15.14;33.89;100915.06;5048363;28;19979;-60
2023/04/04 07:27:32;;;;;;;;;;;;;;;14.52;34.94;100929.81;5058674;28;19931;-60
2023/04/04 07:29:57;;;;;;;;;;;;;;;14.54;35.95;100925.28;5064480;28;22119;-60
2023/04/04 07:32:23;;;;;;;;;;;;;;;14.70;36.50;100915.78;5073387;28;19946;-60
2023/04/04 07:34:49;;;;;;;;;;;;;;;15.08;36.18;100909.94;5069293;28;20316;-60
2023/04/04 07:37:14;;;;;;;;;;;;;;;14.77;36.16;100914.66;5054827;28;19931;-60
2023/04/04 07:39:40;;;;;;;;;;;;;;;14.92;34.84;100907.88;5063379;28;20520;-60
2023/04/04 07:42:06;;;;;;;;;;;;;;;15.04;36.20;100907.44;5069341;28;19946;-61
2023/04/04 07:44:31;;;;;;;;;;;;;;;15.05;35.25;100903.81;5069596;28;20023;-60
2023/04/04 07:46:56;;;;;;;;;;;;;;;14.98;35.09;100911.19;5070659;28;19931;-60
2023/04/04 07:49:22;;;;;;;;;;;;;;;15.22;34.28;100904.91;5063370;28;19920;-60
2023/04/04 07:51:47;;;;;;;;;;;;;;;15.39;34.92;100910.56;5056370;28;19967;-60
2023/04/04 07:54:13;;;;;;;;;;;;;;;15.24;35.66;100903.06;5067037;28;19921;-61
2023/04/04 07:56:38;;;;;;;;;;;;;;;15.38;35.84;100913.28;5061494;28;19954;-60
2023/04/04 07:59:03;;;;;;;;;;;;;;;15.44;34.92;100907.69;5066986;28;20006;-60
2023/04/04 08:01:29;;;;;;;;;;;;;;;15.64;35.85;100897.97;5062038;28;20270;-61
2023/04/04 08:03:55;;;;;;;;;;;;;;;15.73;35.06;100891.38;5068800;28;19920;-61
2023/04/04 08:06:21;;;;;;;;;;;;;;;15.63;35.85;100893.50;5055396;28;20419;-61
2023/04/04 08:08:47;;;;;;;;;;;;;;;15.09;34.81;100900.09;5069661;28;20223;-61
2023/04/04 08:11:12;;;;;;;;;;;;;;;15.01;33.47;100896.78;5064518;28;19923;-61
2023/04/04 08:13:37;;;;;;;;;;;;;;;14.72;35.59;100903.22;5069768;28;20384;-61
2023/04/04 08:16:03;;;;;;;;;;;;;;;15.15;36.34;100899.84;5067149;28;20027;-61
2023/04/04 08:18:28;;;;;;;;;;;;;;;15.02;33.79;100894.09;5058369;28;20398;-61
2023/04/04 08:20:54;;;;;;;;;;;;;;;15.39;36.35;100899.84;5052696;28;19920;-61
2023/04/04 08:23:19;;;;;;;;;;;;;;;15.24;33.99;100900.38;5062213;28;20683;-61
2023/04/04 08:25:45;;;;;;;;;;;;;;;15.25;33.38;100907.50;5053789;28;19943;-61
2023/04/04 08:28:11;;;;;;;;;;;;;;;15.47;32.90;100903.09;5050612;28;20689;-61
2023/04/04 08:30:36;;;;;;;;;;;;;;;15.85;36.12;100906.09;5068936;28;19941;-61
2023/04/04 08:33:01;;;;;;;;;;;;;;;16.38;35.24;100904.75;5065464;28;19970;-61
2023/04/04 08:35:27;;;;;;;;;;;;;;;16.91;34.16;100889.91;5057654;28;20543;-62
2023/04/04 08:37:52;;;;;;;;;;;;;;;16.82;31.32;100906.44;5061401;28;19954;-61
2023/04/04 08:40:17;;;;;;;;;;;;;;;16.41;33.91;100910.88;5050164;28;20029;-61
2023/04/04 08:42:44;;;;;;;;;;;;;;;16.07;33.90;100909.66;5061251;28;19942;-61
2023/04/04 08:45:10;;;;;;;;;;;;;;;16.16;34.21;100910.16;5063397;28;19947;-61
2023/04/04 08:47:36;;;;;;;;;;;;;;;16.07;33.72;100912.34;5056461;28;20716;-61
2023/04/04 08:50:06;;;;;;;;;;;;;;;16.13;33.83;100909.44;5054719;28;19971;-60
2023/04/04 08:52:34;;;;;;;;;;;;;;;16.34;35.29;100912.06;5061915;28;19924;-61
2023/04/04 08:55:09;;;;;;;;;;;;;;;16.25;32.79;100915.16;5049871;28;19927;-61
2023/04/04 08:57:34;;;;;;;;;;;;;;;16.54;33.78;100905.91;5052633;28;19923;-61
2023/04/04 09:00:04;;;;;;;;;;;;;;;16.85;32.41;100912.56;5062543;28;19927;-61
2023/04/04 09:02:35;;;;;;;;;;;;;;;17.10;33.14;100906.97;5061555;28;19921;-61
2023/04/04 09:05:01;;;;;;;;;;;;;;;17.56;33.36;100906.63;5057019;28;19963;-61
2023/04/04 09:07:27;;;;;;;;;;;;;;;17.46;31.53;100908.00;5049319;28;19927;-61
2023/04/04 09:09:52;;;;;;;;;;;;;;;17.85;32.85;100903.44;5051855;28;19941;-61
2023/04/04 09:12:19;;;;;;;;;;;;;;;18.03;32.18;100907.94;5048935;28;19948;-61
2023/04/04 09:14:45;;;;;;;;;;;;;;;17.83;31.66;100905.31;5049350;28;19929;-61
2023/04/04 09:17:10;;;;;;;;;;;;;;;17.43;32.87;100901.88;5051690;28;19947;-61
2023/04/04 09:19:36;;;;;;;;;;;;;;;17.89;33.75;100899.63;5060759;28;19938;-61
2023/04/04 09:22:01;;;;;;;;;;;;;;;17.23;30.74;100901.91;5066811;28;19963;-61
2023/04/04 09:24:40;;;;;;;;;;;;;;;16.44;32.65;100905.38;5069655;28;19995;-60
2023/04/04 09:27:06;;;;;;;;;;;;;;;16.83;34.25;100909.09;5065633;28;19958;-60
2023/04/04 09:29:32;;;;;;;;;;;;;;;17.24;32.32;100901.84;5063111;28;19924;-61
2023/04/04 09:31:57;;;;;;;;;;;;;;;17.18;31.74;100894.06;5051554;28;20304;-60
2023/04/04 09:34:23;;;;;;;;;;;;;;;17.38;31.31;100891.31;5067937;28;20331;-60
2023/04/04 09:36:48;;;;;;;;;;;;;;;17.33;32.84;100892.50;5067943;28;19927;-60
2023/04/04 09:39:16;;;;;;;;;;;;;;;17.50;33.94;100892.59;5068180;28;19988;-60
2023/04/04 09:41:43;;;;;;;;;;;;;;;17.16;31.66;100878.94;5060594;28;19920;-60
2023/04/04 09:44:12;;;;;;;;;;;;;;;17.22;31.30;100884.91;5062477;28;19917;-60
2023/04/04 09:46:40;;;;;;;;;;;;;;;16.99;32.06;100880.59;5069671;28;19913;-60
2023/04/04 09:49:09;;;;;;;;;;;;;;;17.13;30.79;100890.72;5069447;28;19963;-60
2023/04/04 09:51:35;;;;;;;;;;;;;;;16.80;30.44;100889.53;5051782;28;20024;-60
2023/04/04 09:54:00;;;;;;;;;;;;;;;17.07;31.97;100882.91;5049496;28;20039;-60
2023/04/04 09:56:26;;;;;;;;;;;;;;;16.82;33.27;100884.94;5049516;28;19921;-60
2023/04/04 09:58:51;;;;;;;;;;;;;;;17.16;33.05;100878.94;5052866;28;19991;-60
2023/04/04 10:01:16;;;;;;;;;;;;;;;17.36;32.31;100876.22;5069096;28;19930;-60
2023/04/04 10:03:42;;;;;;;;;;;;;;;17.73;31.39;100887.00;5069518;28;20046;-60
2023/04/04 10:06:11;;;;;;;;;;;;;;;17.90;30.82;100885.25;5065172;28;19956;-60
2023/04/04 10:08:42;;;;;;;;;;;;;;;17.34;31.21;100892.41;5068438;28;19931;-60
2023/04/04 10:11:08;;;;;;;;;;;;;;;17.49;33.16;100878.28;5069060;28;19972;-60
2023/04/04 10:13:39;;;;;;;;;;;;;;;17.25;33.24;100890.13;5067394;28;19917;-60
2023/04/04 10:16:05;;;;;;;;;;;;;;;17.19;32.00;100882.38;5050794;28;20367;-60
2023/04/04 10:18:31;;;;;;;;;;;;;;;17.35;32.73;100882.53;5048798;28;19958;-60
2023/04/04 10:20:57;;;;;;;;;;;;;;;17.83;33.46;100881.09;5051420;28;20011;-60
2023/04/04 10:23:25;;;;;;;;;;;;;;;18.06;32.08;100880.84;5049511;28;20363;-60
2023/04/04 10:25:51;;;;;;;;;;;;;;;17.70;32.37;100882.66;5055850;28;19958;-60
2023/04/04 10:28:17;;;;;;;;;;;;;;;18.14;32.56;100878.66;5073364;28;19932;-60
2023/04/04 10:30:46;;;;;;;;;;;;;;;18.18;31.17;100876.69;5073197;28;19927;-60
2023/04/04 10:33:31;;;;;;;;;;;;;;;18.30;31.94;100868.84;5073494;28;19924;-60
2023/04/04 10:35:58;;;;;;;;;;;;;;;18.55;33.07;100871.19;5044711;28;19941;-60
2023/04/04 10:38:26;;;;;;;;;;;;;;;18.81;33.18;100868.03;5071540;28;19924;-60
2023/04/04 10:40:54;;;;;;;;;;;;;;;18.67;32.17;100877.75;5069283;28;20299;-60
2023/04/04 10:43:23;;;;;;;;;;;;;;;18.55;30.17;100881.13;5052952;28;19973;-60
2023/04/04 10:45:49;;;;;;;;;;;;;;;18.57;31.07;100881.88;5053167;28;19936;-60
2023/04/04 10:48:15;;;;;;;;;;;;;;;18.62;29.38;100874.44;5055395;28;20383;-60
2023/04/04 10:50:40;;;;;;;;;;;;;;;18.31;30.01;100867.03;5052897;28;20013;-60
2023/04/04 10:53:06;;;;;;;;;;;;;;;18.47;30.85;100872.56;5058275;28;20451;-59
2023/04/04 10:55:32;;;;;;;;;;;;;;;18.53;29.79;100866.84;5071656;28;19950;-60
2023/04/04 10:57:58;;;;;;;;;;;;;;;18.02;31.04;100864.94;5055158;28;19917;-59
2023/04/04 11:00:23;;;;;;;;;;;;;;;17.86;32.56;100864.81;5068277;28;19916;-60
2023/04/04 11:02:50;;;;;;;;;;;;;;;17.85;30.57;100859.50;5060848;28;20411;-60
2023/04/04 11:05:31;;;;;;;;;;;;;;;18.27;32.25;100852.84;5062639;28;19975;-59
2023/04/04 11:08:01;;;;;;;;;;;;;;;18.55;31.21;100846.09;5067868;28;20671;-60
2023/04/04 11:10:28;;;;;;;;;;;;;;;18.36;29.38;100852.38;5052013;28;19958;-59
2023/04/04 11:12:55;;;;;;;;;;;;;;;18.18;29.73;100856.00;5058948;28;19973;-60
2023/04/04 11:15:21;;;;;;;;;;;;;;;18.28;30.80;100846.53;5068888;28;19931;-60
2023/04/04 11:17:50;;;;;;;;;;;;;;;18.30;31.03;100852.69;5072114;28;20386;-60
2023/04/04 11:20:16;;;;;;;;;;;;;;;18.55;29.76;100846.09;5065354;28;19921;-60
2023/04/04 11:22:42;;;;;;;;;;;;;;;18.16;30.75;100848.94;5052243;28;20340;-60
2023/04/04 11:25:26;;;;;;;;;;;;;;;18.50;30.29;100842.75;5052233;28;19951;-60
2023/04/04 11:27:55;;;;;;;;;;;;;;;18.34;27.96;100838.13;5054170;28;19939;-60
2023/04/04 11:30:21;;;;;;;;;;;;;;;18.24;32.22;100844.03;5068379;28;19951;-60
2023/04/04 11:32:47;;;;;;;;;;;;;;;18.34;30.75;100835.44;5060610;28;19946;-59
2023/04/04 11:35:12;;;;;;;;;;;;;;;18.21;30.80;100841.50;5052011;28;20291;-60
2023/04/04 11:37:50;;;;;;;;;;;;;;;18.47;29.44;100832.16;5056964;28;19928;-60
2023/04/04 11:40:16;;;;;;;;;;;;;;;18.30;30.43;100833.81;5068324;28;20002;-60
2023/04/04 11:42:42;;;;;;;;;;;;;;;18.78;30.78;100826.88;5070418;28;20672;-60
2023/04/04 11:45:09;;;;;;;;;;;;;;;19.21;30.88;100823.56;5070993;28;20080;-60
2023/04/04 11:47:34;;;;;;;;;;;;;;;19.60;31.90;100830.34;5054098;28;20023;-60
2023/04/04 11:50:00;;;;;;;;;;;;;;;19.05;29.10;100825.38;5051850;28;20038;-61
2023/04/04 11:52:31;;;;;;;;;;;;;;;18.50;28.20;100830.13;5059141;28;19920;-60
2023/04/04 11:54:56;;;;;;;;;;;;;;;19.00;29.73;100830.16;5071801;28;19941;-60
2023/04/04 11:57:22;;;;;;;;;;;;;;;19.44;30.44;100820.50;5069922;28;19969;-60
2023/04/04 11:59:48;;;;;;;;;;;;;;;19.12;29.35;100816.88;5070661;28;19953;-60
2023/04/04 12:02:22;;;;;;;;;;;;;;;18.91;29.22;100822.56;5071595;28;19976;-60
2023/04/04 12:04:50;;;;;;;;;;;;;;;19.06;27.19;100819.06;5065100;28;19944;-60
2023/04/04 12:07:16;;;;;;;;;;;;;;;18.50;29.58;100805.03;5053977;28;19957;-60
2023/04/04 12:09:41;;;;;;;;;;;;;;;18.28;28.84;100802.56;5050997;28;19916;-59
2023/04/04 12:12:11;;;;;;;;;;;;;;;18.60;30.72;100806.31;5053681;28;19965;-60
2023/04/04 12:14:37;;;;;;;;;;;;;;;18.66;30.06;100805.97;5070021;28;19939;-60
2023/04/04 12:17:02;;;;;;;;;;;;;;;18.31;28.62;100811.34;5066625;28;20411;-60
2023/04/04 12:19:28;;;;;;;;;;;;;;;18.46;30.43;100803.44;5070249;28;19958;-60
2023/04/04 12:21:53;;;;;;;;;;;;;;;18.78;29.46;100802.63;5070261;28;20402;-60
2023/04/04 12:24:19;;;;;;;;;;;;;;;19.23;29.34;100805.50;5053967;28;19971;-59
2023/04/04 12:26:47;;;;;;;;;;;;;;;19.12;31.48;100795.31;5051259;28;19927;-59
2023/04/04 12:29:14;;;;;;;;;;;;;;;19.65;30.82;100801.28;5035861;28;19946;-60
2023/04/04 12:31:41;;;;;;;;;;;;;;;20.52;30.25;100792.50;5051476;28;20398;-60
2023/04/04 12:34:07;;;;;;;;;;;;;;;20.38;28.18;100803.25;5051258;28;20414;-60